METAR & TAF Report
Available data for CYAM from the past 6 hours
SAULT STE MARIE, ON
Metar
CYAM 220100Z 31010G15KT 25SM FEW180 SCT240 BKN300 15/10 A3002 RMK AC2CC1CI3 SLP169 DENSITY ALT 700FT

01:00 UTC

Wind: 310° 10kt

Visibility: 25 SM

Sky: FEW 18000 ft

Temp: 15 deg C / 59 deg F

Dewpoint: 10 deg C / 50 deg F

Pressure: 30.02 inHg

TAF
TAF CYAM 211938Z 2120/2208 28015G25KT P6SM SKC BECMG 2200/2202 30010KT BECMG 2206/2208 31006KT RMK NXT FCST BY 220200Z
NOTAM

Click here for NOTAMs.